sensor_id;sensor_type;location;lat;lon;timestamp;P1;durP1;ratioP1;P2;durP2;ratioP2
21804;SDS011;11064;47.102;15.452;2023-05-21T05:03:02;11.27;;;9.98;;
21804;SDS011;11064;47.102;15.452;2023-05-21T05:05:29;11.20;;;9.70;;
21804;SDS011;11064;47.102;15.452;2023-05-21T05:07:55;13.93;;;10.50;;
21804;SDS011;11064;47.102;15.452;2023-05-21T05:10:22;12.25;;;10.38;;
21804;SDS011;11064;47.102;15.452;2023-05-21T05:12:48;13.32;;;10.63;;
21804;SDS011;11064;47.102;15.452;2023-05-21T05:15:14;11.45;;;9.95;;
21804;SDS011;11064;47.102;15.452;2023-05-21T05:17:40;13.05;;;10.90;;
21804;SDS011;11064;47.102;15.452;2023-05-21T05:20:06;11.45;;;10.25;;
21804;SDS011;11064;47.102;15.452;2023-05-21T05:22:32;15.50;;;10.35;;
21804;SDS011;11064;47.102;15.452;2023-05-21T05:24:58;11.82;;;9.23;;
21804;SDS011;11064;47.102;15.452;2023-05-21T05:27:24;10.80;;;9.70;;
21804;SDS011;11064;47.102;15.452;2023-05-21T05:29:50;12.32;;;9.68;;
21804;SDS011;11064;47.102;15.452;2023-05-21T05:32:16;11.30;;;8.65;;
21804;SDS011;11064;47.102;15.452;2023-05-21T05:34:43;10.65;;;9.15;;
21804;SDS011;11064;47.102;15.452;2023-05-21T05:37:09;12.75;;;9.65;;
21804;SDS011;11064;47.102;15.452;2023-05-21T05:39:35;14.05;;;9.00;;
21804;SDS011;11064;47.102;15.452;2023-05-21T05:42:02;10.27;;;8.70;;
21804;SDS011;11064;47.102;15.452;2023-05-21T05:44:28;10.40;;;8.40;;
21804;SDS011;11064;47.102;15.452;2023-05-21T05:46:54;9.68;;;7.85;;
21804;SDS011;11064;47.102;15.452;2023-05-21T05:49:20;9.93;;;8.10;;
21804;SDS011;11064;47.102;15.452;2023-05-21T05:51:46;10.52;;;8.85;;
21804;SDS011;11064;47.102;15.452;2023-05-21T05:54:11;10.82;;;8.13;;
21804;SDS011;11064;47.102;15.452;2023-05-21T05:56:37;12.40;;;9.15;;
21804;SDS011;11064;47.102;15.452;2023-05-21T05:59:03;12.27;;;9.23;;
21804;SDS011;11064;47.102;15.452;2023-05-21T06:01:28;11.32;;;8.95;;
21804;SDS011;11064;47.102;15.452;2023-05-21T06:03:56;10.98;;;9.73;;
21804;SDS011;11064;47.102;15.452;2023-05-21T06:06:23;14.43;;;9.48;;
21804;SDS011;11064;47.102;15.452;2023-05-21T06:08:48;11.00;;;9.50;;
21804;SDS011;11064;47.102;15.452;2023-05-21T06:11:14;11.00;;;9.70;;
21804;SDS011;11064;47.102;15.452;2023-05-21T06:13:43;11.75;;;10.15;;
21804;SDS011;11064;47.102;15.452;2023-05-21T06:16:09;15.75;;;10.25;;
21804;SDS011;11064;47.102;15.452;2023-05-21T06:18:35;13.18;;;8.98;;
21804;SDS011;11064;47.102;15.452;2023-05-21T06:21:02;17.08;;;9.98;;
21804;SDS011;11064;47.102;15.452;2023-05-21T06:23:28;14.63;;;9.82;;
21804;SDS011;11064;47.102;15.452;2023-05-21T06:25:56;10.75;;;9.13;;
21804;SDS011;11064;47.102;15.452;2023-05-21T06:28:21;13.63;;;9.48;;
21804;SDS011;11064;47.102;15.452;2023-05-21T06:30:47;12.65;;;9.48;;
21804;SDS011;11064;47.102;15.452;2023-05-21T06:33:13;13.00;;;9.63;;
21804;SDS011;11064;47.102;15.452;2023-05-21T06:35:39;14.60;;;9.27;;
21804;SDS011;11064;47.102;15.452;2023-05-21T06:38:05;11.63;;;9.95;;
21804;SDS011;11064;47.102;15.452;2023-05-21T06:40:31;11.40;;;9.60;;
21804;SDS011;11064;47.102;15.452;2023-05-21T06:42:56;11.98;;;9.32;;
21804;SDS011;11064;47.102;15.452;2023-05-21T06:45:23;12.55;;;9.65;;
21804;SDS011;11064;47.102;15.452;2023-05-21T06:47:49;14.27;;;10.43;;
21804;SDS011;11064;47.102;15.452;2023-05-21T06:50:15;11.68;;;9.90;;
21804;SDS011;11064;47.102;15.452;2023-05-21T06:52:41;13.65;;;9.52;;
21804;SDS011;11064;47.102;15.452;2023-05-21T06:55:07;12.45;;;9.95;;
21804;SDS011;11064;47.102;15.452;2023-05-21T06:57:33;14.85;;;10.73;;
21804;SDS011;11064;47.102;15.452;2023-05-21T06:59:59;12.73;;;9.40;;
21804;SDS011;11064;47.102;15.452;2023-05-21T07:02:24;12.00;;;10.00;;
21804;SDS011;11064;47.102;15.452;2023-05-21T07:04:50;15.32;;;9.57;;
21804;SDS011;11064;47.102;15.452;2023-05-21T07:07:17;13.75;;;10.10;;
21804;SDS011;11064;47.102;15.452;2023-05-21T07:09:43;14.60;;;10.32;;
21804;SDS011;11064;47.102;15.452;2023-05-21T07:12:09;11.80;;;9.88;;
21804;SDS011;11064;47.102;15.452;2023-05-21T07:14:34;12.35;;;9.93;;
21804;SDS011;11064;47.102;15.452;2023-05-21T07:17:00;11.95;;;9.75;;
21804;SDS011;11064;47.102;15.452;2023-05-21T07:19:26;10.60;;;9.40;;
21804;SDS011;11064;47.102;15.452;2023-05-21T07:21:52;12.07;;;9.02;;
21804;SDS011;11064;47.102;15.452;2023-05-21T07:24:18;14.55;;;9.63;;
21804;SDS011;11064;47.102;15.452;2023-05-21T07:26:43;11.75;;;9.05;;
21804;SDS011;11064;47.102;15.452;2023-05-21T07:29:09;13.15;;;9.20;;
21804;SDS011;11064;47.102;15.452;2023-05-21T07:31:35;12.13;;;9.52;;
21804;SDS011;11064;47.102;15.452;2023-05-21T07:34:01;12.98;;;10.25;;
21804;SDS011;11064;47.102;15.452;2023-05-21T07:36:27;12.25;;;9.77;;
21804;SDS011;11064;47.102;15.452;2023-05-21T07:38:53;12.60;;;9.68;;
21804;SDS011;11064;47.102;15.452;2023-05-21T07:41:19;12.85;;;9.30;;
21804;SDS011;11064;47.102;15.452;2023-05-21T07:43:46;10.88;;;8.85;;
21804;SDS011;11064;47.102;15.452;2023-05-21T07:46:11;11.45;;;9.02;;
21804;SDS011;11064;47.102;15.452;2023-05-21T07:48:37;10.48;;;8.60;;
21804;SDS011;11064;47.102;15.452;2023-05-21T07:51:03;11.50;;;8.57;;
21804;SDS011;11064;47.102;15.452;2023-05-21T07:53:29;11.07;;;8.48;;
21804;SDS011;11064;47.102;15.452;2023-05-21T07:55:56;10.63;;;8.15;;
21804;SDS011;11064;47.102;15.452;2023-05-21T07:58:23;12.30;;;8.32;;
21804;SDS011;11064;47.102;15.452;2023-05-21T08:00:49;12.68;;;8.77;;
21804;SDS011;11064;47.102;15.452;2023-05-21T08:03:15;11.20;;;8.30;;
21804;SDS011;11064;47.102;15.452;2023-05-21T08:05:42;9.75;;;7.68;;
21804;SDS011;11064;47.102;15.452;2023-05-21T08:10:42;9.20;;;7.78;;
21804;SDS011;11064;47.102;15.452;2023-05-21T08:13:08;11.40;;;8.00;;
21804;SDS011;11064;47.102;15.452;2023-05-21T08:15:37;10.67;;;7.30;;
21804;SDS011;11064;47.102;15.452;2023-05-21T08:18:04;11.40;;;7.90;;
21804;SDS011;11064;47.102;15.452;2023-05-21T08:20:30;8.65;;;7.35;;
21804;SDS011;11064;47.102;15.452;2023-05-21T08:22:57;10.95;;;8.05;;
21804;SDS011;11064;47.102;15.452;2023-05-21T08:25:24;10.98;;;7.80;;
21804;SDS011;11064;47.102;15.452;2023-05-21T08:27:50;10.48;;;7.32;;
21804;SDS011;11064;47.102;15.452;2023-05-21T08:30:16;9.80;;;7.63;;
21804;SDS011;11064;47.102;15.452;2023-05-21T08:32:42;10.25;;;7.68;;
21804;SDS011;11064;47.102;15.452;2023-05-21T08:35:08;8.98;;;7.63;;
21804;SDS011;11064;47.102;15.452;2023-05-21T08:37:34;10.10;;;7.85;;
21804;SDS011;11064;47.102;15.452;2023-05-21T08:39:59;9.70;;;7.53;;
21804;SDS011;11064;47.102;15.452;2023-05-21T08:44:58;8.88;;;7.78;;
21804;SDS011;11064;47.102;15.452;2023-05-21T08:47:25;10.98;;;7.63;;
21804;SDS011;11064;47.102;15.452;2023-05-21T08:49:58;11.40;;;7.90;;
21804;SDS011;11064;47.102;15.452;2023-05-21T08:52:25;9.30;;;7.57;;
21804;SDS011;11064;47.102;15.452;2023-05-21T08:54:51;9.07;;;7.65;;
21804;SDS011;11064;47.102;15.452;2023-05-21T08:57:18;9.75;;;7.50;;
21804;SDS011;11064;47.102;15.452;2023-05-21T08:59:47;9.82;;;7.38;;
21804;SDS011;11064;47.102;15.452;2023-05-21T09:02:13;8.32;;;7.07;;
21804;SDS011;11064;47.102;15.452;2023-05-21T09:04:42;7.60;;;6.13;;
21804;SDS011;11064;47.102;15.452;2023-05-21T09:07:13;8.05;;;7.15;;
21804;SDS011;11064;47.102;15.452;2023-05-21T09:09:55;8.32;;;7.35;;
21804;SDS011;11064;47.102;15.452;2023-05-21T09:12:24;10.30;;;6.78;;
21804;SDS011;11064;47.102;15.452;2023-05-21T09:14:50;8.93;;;6.75;;
21804;SDS011;11064;47.102;15.452;2023-05-21T09:17:17;9.63;;;7.30;;
21804;SDS011;11064;47.102;15.452;2023-05-21T09:22:40;9.15;;;7.28;;
21804;SDS011;11064;47.102;15.452;2023-05-21T09:25:07;8.30;;;7.32;;
21804;SDS011;11064;47.102;15.452;2023-05-21T09:27:37;10.38;;;7.10;;
21804;SDS011;11064;47.102;15.452;2023-05-21T09:30:04;8.80;;;7.50;;
21804;SDS011;11064;47.102;15.452;2023-05-21T09:32:35;10.88;;;7.60;;
21804;SDS011;11064;47.102;15.452;2023-05-21T09:35:05;7.65;;;6.85;;
21804;SDS011;11064;47.102;15.452;2023-05-21T09:37:57;10.65;;;7.47;;
21804;SDS011;11064;47.102;15.452;2023-05-21T09:40:22;11.30;;;7.30;;
21804;SDS011;11064;47.102;15.452;2023-05-21T09:42:49;10.52;;;7.30;;
21804;SDS011;11064;47.102;15.452;2023-05-21T09:45:23;9.50;;;7.38;;
21804;SDS011;11064;47.102;15.452;2023-05-21T09:47:50;8.90;;;7.30;;
21804;SDS011;11064;47.102;15.452;2023-05-21T09:50:24;8.55;;;7.30;;
21804;SDS011;11064;47.102;15.452;2023-05-21T09:52:52;7.88;;;7.07;;
21804;SDS011;11064;47.102;15.452;2023-05-21T09:55:23;7.97;;;7.18;;
21804;SDS011;11064;47.102;15.452;2023-05-21T09:57:50;8.80;;;6.80;;
21804;SDS011;11064;47.102;15.452;2023-05-21T10:00:26;9.68;;;6.95;;
21804;SDS011;11064;47.102;15.452;2023-05-21T10:02:56;10.50;;;7.28;;
21804;SDS011;11064;47.102;15.452;2023-05-21T10:05:26;8.80;;;6.90;;
21804;SDS011;11064;47.102;15.452;2023-05-21T10:07:55;8.35;;;6.78;;
21804;SDS011;11064;47.102;15.452;2023-05-21T10:10:25;11.35;;;7.00;;
21804;SDS011;11064;47.102;15.452;2023-05-21T10:13:13;9.10;;;6.80;;
21804;SDS011;11064;47.102;15.452;2023-05-21T10:15:49;11.93;;;7.47;;
21804;SDS011;11064;47.102;15.452;2023-05-21T10:18:21;9.10;;;6.55;;
21804;SDS011;11064;47.102;15.452;2023-05-21T10:20:48;10.00;;;6.93;;
21804;SDS011;11064;47.102;15.452;2023-05-21T10:23:15;9.23;;;7.00;;
21804;SDS011;11064;47.102;15.452;2023-05-21T10:25:42;9.45;;;6.78;;
21804;SDS011;11064;47.102;15.452;2023-05-21T10:28:09;10.48;;;7.03;;
21804;SDS011;11064;47.102;15.452;2023-05-21T10:30:40;8.25;;;6.47;;
21804;SDS011;11064;47.102;15.452;2023-05-21T10:33:06;8.60;;;6.18;;
21804;SDS011;11064;47.102;15.452;2023-05-21T10:35:33;7.72;;;6.57;;
21804;SDS011;11064;47.102;15.452;2023-05-21T10:38:01;9.45;;;6.90;;
21804;SDS011;11064;47.102;15.452;2023-05-21T10:40:28;7.47;;;6.25;;
21804;SDS011;11064;47.102;15.452;2023-05-21T10:48:59;8.85;;;7.00;;
21804;SDS011;11064;47.102;15.452;2023-05-21T10:52:19;9.82;;;6.53;;
21804;SDS011;11064;47.102;15.452;2023-05-21T10:54:26;12.98;;;6.95;;
21804;SDS011;11064;47.102;15.452;2023-05-21T10:59:54;9.00;;;6.90;;
21804;SDS011;11064;47.102;15.452;2023-05-21T11:02:24;9.20;;;6.93;;
21804;SDS011;11064;47.102;15.452;2023-05-21T11:04:57;10.38;;;6.50;;
21804;SDS011;11064;47.102;15.452;2023-05-21T11:07:48;9.73;;;6.88;;
21804;SDS011;11064;47.102;15.452;2023-05-21T11:10:29;9.95;;;6.88;;
21804;SDS011;11064;47.102;15.452;2023-05-21T11:13:14;8.20;;;6.63;;
21804;SDS011;11064;47.102;15.452;2023-05-21T11:18:22;8.50;;;6.78;;
21804;SDS011;11064;47.102;15.452;2023-05-21T11:20:51;10.10;;;6.88;;
21804;SDS011;11064;47.102;15.452;2023-05-21T11:23:17;8.63;;;6.50;;
21804;SDS011;11064;47.102;15.452;2023-05-21T11:25:50;9.18;;;7.00;;
21804;SDS011;11064;47.102;15.452;2023-05-21T11:28:32;8.80;;;6.90;;
21804;SDS011;11064;47.102;15.452;2023-05-21T11:39:49;8.88;;;6.88;;
21804;SDS011;11064;47.102;15.452;2023-05-21T11:44:58;7.50;;;6.32;;
21804;SDS011;11064;47.102;15.452;2023-05-21T11:47:26;10.88;;;6.90;;
21804;SDS011;11064;47.102;15.452;2023-05-21T11:49:53;9.85;;;6.40;;
21804;SDS011;11064;47.102;15.452;2023-05-21T11:52:20;8.75;;;6.65;;
21804;SDS011;11064;47.102;15.452;2023-05-21T11:54:50;8.25;;;6.88;;
21804;SDS011;11064;47.102;15.452;2023-05-21T11:57:19;8.05;;;6.85;;
21804;SDS011;11064;47.102;15.452;2023-05-21T11:59:46;8.38;;;6.70;;
21804;SDS011;11064;47.102;15.452;2023-05-21T12:02:17;8.85;;;6.70;;
21804;SDS011;11064;47.102;15.452;2023-05-21T12:04:45;8.85;;;6.60;;
21804;SDS011;11064;47.102;15.452;2023-05-21T12:07:12;7.85;;;6.85;;
21804;SDS011;11064;47.102;15.452;2023-05-21T12:09:43;9.25;;;7.43;;
21804;SDS011;11064;47.102;15.452;2023-05-21T12:12:13;8.07;;;6.45;;
21804;SDS011;11064;47.102;15.452;2023-05-21T12:14:47;8.13;;;6.80;;
21804;SDS011;11064;47.102;15.452;2023-05-21T12:17:14;7.70;;;6.53;;
21804;SDS011;11064;47.102;15.452;2023-05-21T12:19:41;8.85;;;6.80;;
21804;SDS011;11064;47.102;15.452;2023-05-21T12:22:08;8.35;;;7.00;;
21804;SDS011;11064;47.102;15.452;2023-05-21T12:24:35;11.88;;;6.88;;
21804;SDS011;11064;47.102;15.452;2023-05-21T12:27:02;9.10;;;6.90;;
21804;SDS011;11064;47.102;15.452;2023-05-21T12:29:34;8.18;;;6.93;;
21804;SDS011;11064;47.102;15.452;2023-05-21T12:32:06;9.23;;;7.10;;
21804;SDS011;11064;47.102;15.452;2023-05-21T12:37:03;9.60;;;6.77;;
21804;SDS011;11064;47.102;15.452;2023-05-21T12:39:31;7.97;;;6.70;;
21804;SDS011;11064;47.102;15.452;2023-05-21T12:42:04;10.35;;;7.00;;
21804;SDS011;11064;47.102;15.452;2023-05-21T12:44:31;7.95;;;7.07;;
21804;SDS011;11064;47.102;15.452;2023-05-21T12:46:57;9.48;;;6.95;;
21804;SDS011;11064;47.102;15.452;2023-05-21T12:49:44;11.57;;;7.03;;
21804;SDS011;11064;47.102;15.452;2023-05-21T12:52:14;8.20;;;7.03;;
21804;SDS011;11064;47.102;15.452;2023-05-21T12:54:48;8.00;;;7.07;;
21804;SDS011;11064;47.102;15.452;2023-05-21T12:57:16;9.80;;;7.03;;
21804;SDS011;11064;47.102;15.452;2023-05-21T12:59:54;9.85;;;7.40;;
21804;SDS011;11064;47.102;15.452;2023-05-21T13:02:27;9.10;;;7.03;;
21804;SDS011;11064;47.102;15.452;2023-05-21T13:04:57;8.18;;;6.43;;
21804;SDS011;11064;47.102;15.452;2023-05-21T13:07:29;10.05;;;6.70;;
21804;SDS011;11064;47.102;15.452;2023-05-21T13:09:56;8.25;;;6.60;;
21804;SDS011;11064;47.102;15.452;2023-05-21T13:12:24;12.15;;;6.85;;
21804;SDS011;11064;47.102;15.452;2023-05-21T13:14:51;7.95;;;6.60;;
21804;SDS011;11064;47.102;15.452;2023-05-21T13:17:22;8.93;;;6.53;;
21804;SDS011;11064;47.102;15.452;2023-05-21T13:22:33;8.73;;;5.95;;
21804;SDS011;11064;47.102;15.452;2023-05-21T13:25:02;8.52;;;6.93;;
21804;SDS011;11064;47.102;15.452;2023-05-21T13:27:28;9.00;;;6.30;;
21804;SDS011;11064;47.102;15.452;2023-05-21T13:29:53;9.90;;;6.60;;
21804;SDS011;11064;47.102;15.452;2023-05-21T13:32:19;8.18;;;6.22;;
21804;SDS011;11064;47.102;15.452;2023-05-21T13:34:46;9.43;;;6.53;;
21804;SDS011;11064;47.102;15.452;2023-05-21T13:37:12;9.60;;;6.57;;
21804;SDS011;11064;47.102;15.452;2023-05-21T13:39:38;10.82;;;6.32;;
21804;SDS011;11064;47.102;15.452;2023-05-21T13:42:04;11.98;;;6.80;;
21804;SDS011;11064;47.102;15.452;2023-05-21T13:44:31;9.80;;;6.60;;
21804;SDS011;11064;47.102;15.452;2023-05-21T13:47:00;8.50;;;6.50;;
21804;SDS011;11064;47.102;15.452;2023-05-21T13:49:27;7.88;;;6.32;;
21804;SDS011;11064;47.102;15.452;2023-05-21T13:51:52;10.32;;;6.30;;
21804;SDS011;11064;47.102;15.452;2023-05-21T13:54:18;9.82;;;6.38;;
21804;SDS011;11064;47.102;15.452;2023-05-21T13:56:45;7.35;;;6.53;;
21804;SDS011;11064;47.102;15.452;2023-05-21T13:59:11;11.50;;;6.95;;
21804;SDS011;11064;47.102;15.452;2023-05-21T14:01:37;8.38;;;6.10;;
21804;SDS011;11064;47.102;15.452;2023-05-21T14:04:03;8.80;;;7.10;;
21804;SDS011;11064;47.102;15.452;2023-05-21T14:06:30;7.25;;;6.22;;
21804;SDS011;11064;47.102;15.452;2023-05-21T14:08:56;8.15;;;6.57;;
21804;SDS011;11064;47.102;15.452;2023-05-21T14:11:26;8.55;;;6.70;;
21804;SDS011;11064;47.102;15.452;2023-05-21T14:13:52;8.07;;;6.50;;
21804;SDS011;11064;47.102;15.452;2023-05-21T14:16:19;10.05;;;6.80;;
21804;SDS011;11064;47.102;15.452;2023-05-21T14:18:47;7.97;;;6.45;;
21804;SDS011;11064;47.102;15.452;2023-05-21T14:21:12;8.35;;;6.60;;
21804;SDS011;11064;47.102;15.452;2023-05-21T14:23:38;9.40;;;6.53;;
21804;SDS011;11064;47.102;15.452;2023-05-21T14:26:04;9.05;;;6.88;;
21804;SDS011;11064;47.102;15.452;2023-05-21T14:28:30;8.35;;;6.88;;
21804;SDS011;11064;47.102;15.452;2023-05-21T14:30:55;6.97;;;6.28;;
21804;SDS011;11064;47.102;15.452;2023-05-21T14:33:21;7.13;;;6.28;;
21804;SDS011;11064;47.102;15.452;2023-05-21T14:35:47;7.45;;;6.20;;
21804;SDS011;11064;47.102;15.452;2023-05-21T14:38:13;9.45;;;6.72;;
21804;SDS011;11064;47.102;15.452;2023-05-21T14:40:39;12.07;;;6.93;;
21804;SDS011;11064;47.102;15.452;2023-05-21T14:43:05;12.00;;;6.85;;
21804;SDS011;11064;47.102;15.452;2023-05-21T14:45:31;8.48;;;6.80;;
21804;SDS011;11064;47.102;15.452;2023-05-21T14:48:02;10.23;;;6.90;;
21804;SDS011;11064;47.102;15.452;2023-05-21T14:50:32;12.52;;;7.22;;
21804;SDS011;11064;47.102;15.452;2023-05-21T14:53:02;9.93;;;6.70;;
21804;SDS011;11064;47.102;15.452;2023-05-21T14:55:32;10.10;;;6.72;;
21804;SDS011;11064;47.102;15.452;2023-05-21T14:58:02;8.32;;;6.50;;
21804;SDS011;11064;47.102;15.452;2023-05-21T15:00:31;8.88;;;6.93;;
21804;SDS011;11064;47.102;15.452;2023-05-21T15:02:58;8.00;;;7.10;;
21804;SDS011;11064;47.102;15.452;2023-05-21T15:05:24;8.27;;;6.57;;
21804;SDS011;11064;47.102;15.452;2023-05-21T15:07:52;9.27;;;6.78;;
21804;SDS011;11064;47.102;15.452;2023-05-21T15:10:20;8.77;;;7.00;;
21804;SDS011;11064;47.102;15.452;2023-05-21T15:12:46;7.75;;;6.57;;
21804;SDS011;11064;47.102;15.452;2023-05-21T15:15:12;8.18;;;6.63;;
21804;SDS011;11064;47.102;15.452;2023-05-21T15:17:38;10.45;;;6.50;;
21804;SDS011;11064;47.102;15.452;2023-05-21T15:20:04;8.18;;;6.43;;
21804;SDS011;11064;47.102;15.452;2023-05-21T15:22:30;10.70;;;6.28;;
21804;SDS011;11064;47.102;15.452;2023-05-21T15:24:56;9.05;;;6.75;;
21804;SDS011;11064;47.102;15.452;2023-05-21T15:27:22;8.07;;;6.40;;
21804;SDS011;11064;47.102;15.452;2023-05-21T15:29:49;7.80;;;6.47;;
21804;SDS011;11064;47.102;15.452;2023-05-21T15:32:15;9.07;;;6.75;;
21804;SDS011;11064;47.102;15.452;2023-05-21T15:34:42;8.05;;;7.00;;
21804;SDS011;11064;47.102;15.452;2023-05-21T15:37:08;7.57;;;6.80;;
21804;SDS011;11064;47.102;15.452;2023-05-21T15:39:34;9.10;;;6.93;;
21804;SDS011;11064;47.102;15.452;2023-05-21T15:41:59;11.40;;;7.25;;
21804;SDS011;11064;47.102;15.452;2023-05-21T15:44:25;8.88;;;7.13;;
21804;SDS011;11064;47.102;15.452;2023-05-21T15:46:51;15.60;;;7.75;;
21804;SDS011;11064;47.102;15.452;2023-05-21T15:49:18;9.93;;;7.68;;
21804;SDS011;11064;47.102;15.452;2023-05-21T15:51:46;9.27;;;7.78;;
21804;SDS011;11064;47.102;15.452;2023-05-21T15:54:12;11.77;;;7.80;;
21804;SDS011;11064;47.102;15.452;2023-05-21T15:56:44;11.80;;;7.80;;
21804;SDS011;11064;47.102;15.452;2023-05-21T15:59:10;9.85;;;7.40;;
21804;SDS011;11064;47.102;15.452;2023-05-21T16:01:37;9.98;;;8.10;;
21804;SDS011;11064;47.102;15.452;2023-05-21T16:04:03;8.30;;;7.20;;
21804;SDS011;11064;47.102;15.452;2023-05-21T16:06:29;10.68;;;8.75;;
21804;SDS011;11064;47.102;15.452;2023-05-21T16:08:56;12.05;;;7.75;;
21804;SDS011;11064;47.102;15.452;2023-05-21T16:11:23;12.48;;;7.57;;
21804;SDS011;11064;47.102;15.452;2023-05-21T16:13:50;11.27;;;7.60;;
21804;SDS011;11064;47.102;15.452;2023-05-21T16:16:16;9.02;;;7.60;;
21804;SDS011;11064;47.102;15.452;2023-05-21T16:18:42;9.18;;;7.15;;
21804;SDS011;11064;47.102;15.452;2023-05-21T16:21:08;8.40;;;7.32;;
21804;SDS011;11064;47.102;15.452;2023-05-21T16:23:34;8.60;;;7.25;;
21804;SDS011;11064;47.102;15.452;2023-05-21T16:26:05;10.70;;;7.72;;
21804;SDS011;11064;47.102;15.452;2023-05-21T16:28:32;8.67;;;6.93;;
21804;SDS011;11064;47.102;15.452;2023-05-21T16:30:58;8.35;;;6.88;;
21804;SDS011;11064;47.102;15.452;2023-05-21T16:33:24;10.57;;;7.35;;
21804;SDS011;11064;47.102;15.452;2023-05-21T16:35:50;11.15;;;7.40;;
21804;SDS011;11064;47.102;15.452;2023-05-21T16:38:15;9.13;;;7.20;;
21804;SDS011;11064;47.102;15.452;2023-05-21T16:40:41;10.05;;;7.43;;
21804;SDS011;11064;47.102;15.452;2023-05-21T16:43:09;8.68;;;7.25;;
21804;SDS011;11064;47.102;15.452;2023-05-21T16:45:42;9.57;;;6.95;;
21804;SDS011;11064;47.102;15.452;2023-05-21T16:48:09;8.75;;;7.15;;
21804;SDS011;11064;47.102;15.452;2023-05-21T16:50:36;8.73;;;7.20;;
21804;SDS011;11064;47.102;15.452;2023-05-21T16:53:02;9.77;;;7.05;;
21804;SDS011;11064;47.102;15.452;2023-05-21T16:55:33;10.43;;;7.03;;
21804;SDS011;11064;47.102;15.452;2023-05-21T16:58:00;9.73;;;7.35;;
21804;SDS011;11064;47.102;15.452;2023-05-21T17:00:27;9.30;;;7.50;;
21804;SDS011;11064;47.102;15.452;2023-05-21T17:02:53;10.07;;;7.00;;
21804;SDS011;11064;47.102;15.452;2023-05-21T17:05:19;9.50;;;7.00;;
21804;SDS011;11064;47.102;15.452;2023-05-21T17:07:46;10.00;;;6.65;;
21804;SDS011;11064;47.102;15.452;2023-05-21T17:10:13;10.45;;;7.10;;
21804;SDS011;11064;47.102;15.452;2023-05-21T17:12:38;8.98;;;7.00;;
21804;SDS011;11064;47.102;15.452;2023-05-21T17:15:05;8.75;;;7.25;;
21804;SDS011;11064;47.102;15.452;2023-05-21T17:17:31;8.90;;;6.53;;
21804;SDS011;11064;47.102;15.452;2023-05-21T17:19:57;7.40;;;6.22;;
21804;SDS011;11064;47.102;15.452;2023-05-21T17:22:24;9.98;;;6.95;;
21804;SDS011;11064;47.102;15.452;2023-05-21T17:24:50;13.75;;;6.97;;
21804;SDS011;11064;47.102;15.452;2023-05-21T17:27:16;9.63;;;7.43;;
21804;SDS011;11064;47.102;15.452;2023-05-21T17:29:41;9.38;;;7.07;;
21804;SDS011;11064;47.102;15.452;2023-05-21T17:32:08;9.80;;;7.38;;
21804;SDS011;11064;47.102;15.452;2023-05-21T17:34:34;9.23;;;7.20;;
21804;SDS011;11064;47.102;15.452;2023-05-21T17:37:01;9.05;;;6.93;;
21804;SDS011;11064;47.102;15.452;2023-05-21T17:39:26;9.50;;;7.55;;
21804;SDS011;11064;47.102;15.452;2023-05-21T17:41:54;10.15;;;7.28;;
21804;SDS011;11064;47.102;15.452;2023-05-21T17:44:20;8.70;;;7.20;;
21804;SDS011;11064;47.102;15.452;2023-05-21T17:46:47;11.68;;;7.43;;
21804;SDS011;11064;47.102;15.452;2023-05-21T17:49:14;10.30;;;7.40;;
21804;SDS011;11064;47.102;15.452;2023-05-21T17:51:40;10.82;;;7.10;;
21804;SDS011;11064;47.102;15.452;2023-05-21T17:54:06;8.90;;;7.15;;
21804;SDS011;11064;47.102;15.452;2023-05-21T17:56:32;9.00;;;7.40;;
21804;SDS011;11064;47.102;15.452;2023-05-21T17:59:03;13.57;;;7.75;;
21804;SDS011;11064;47.102;15.452;2023-05-21T18:01:32;10.75;;;7.65;;
21804;SDS011;11064;47.102;15.452;2023-05-21T18:04:00;13.18;;;7.95;;
21804;SDS011;11064;47.102;15.452;2023-05-21T18:06:26;12.93;;;8.50;;
21804;SDS011;11064;47.102;15.452;2023-05-21T18:08:53;13.35;;;7.82;;
21804;SDS011;11064;47.102;15.452;2023-05-21T18:11:19;10.15;;;7.93;;
21804;SDS011;11064;47.102;15.452;2023-05-21T18:13:46;10.95;;;8.23;;
21804;SDS011;11064;47.102;15.452;2023-05-21T18:16:15;11.35;;;8.05;;
21804;SDS011;11064;47.102;15.452;2023-05-21T18:18:41;9.80;;;8.13;;
21804;SDS011;11064;47.102;15.452;2023-05-21T18:21:07;12.18;;;7.97;;
21804;SDS011;11064;47.102;15.452;2023-05-21T18:23:36;12.27;;;8.32;;
21804;SDS011;11064;47.102;15.452;2023-05-21T18:26:02;12.82;;;8.70;;
21804;SDS011;11064;47.102;15.452;2023-05-21T18:28:30;10.45;;;8.65;;
21804;SDS011;11064;47.102;15.452;2023-05-21T18:30:57;12.23;;;8.48;;
21804;SDS011;11064;47.102;15.452;2023-05-21T18:33:30;11.13;;;8.40;;
21804;SDS011;11064;47.102;15.452;2023-05-21T18:35:56;11.00;;;8.80;;
21804;SDS011;11064;47.102;15.452;2023-05-21T18:38:22;10.93;;;8.80;;
21804;SDS011;11064;47.102;15.452;2023-05-21T18:40:49;13.10;;;8.35;;
21804;SDS011;11064;47.102;15.452;2023-05-21T18:43:15;12.85;;;8.93;;
21804;SDS011;11064;47.102;15.452;2023-05-21T18:45:44;12.25;;;9.52;;
21804;SDS011;11064;47.102;15.452;2023-05-21T18:48:11;11.25;;;9.45;;
21804;SDS011;11064;47.102;15.452;2023-05-21T18:50:37;12.55;;;8.98;;
21804;SDS011;11064;47.102;15.452;2023-05-21T18:53:03;11.65;;;8.80;;
21804;SDS011;11064;47.102;15.452;2023-05-21T18:55:29;10.15;;;8.80;;
21804;SDS011;11064;47.102;15.452;2023-05-21T18:57:55;13.80;;;9.52;;
21804;SDS011;11064;47.102;15.452;2023-05-21T19:00:21;14.05;;;9.32;;
21804;SDS011;11064;47.102;15.452;2023-05-21T19:02:47;12.00;;;9.55;;
21804;SDS011;11064;47.102;15.452;2023-05-21T19:05:13;12.93;;;9.45;;
21804;SDS011;11064;47.102;15.452;2023-05-21T19:07:38;13.13;;;9.73;;
21804;SDS011;11064;47.102;15.452;2023-05-21T19:10:07;11.38;;;9.25;;
21804;SDS011;11064;47.102;15.452;2023-05-21T19:12:34;12.23;;;9.80;;
21804;SDS011;11064;47.102;15.452;2023-05-21T19:15:01;12.85;;;9.57;;
21804;SDS011;11064;47.102;15.452;2023-05-21T19:17:27;13.05;;;9.70;;
21804;SDS011;11064;47.102;15.452;2023-05-21T19:19:53;14.05;;;9.60;;
21804;SDS011;11064;47.102;15.452;2023-05-21T19:22:25;11.88;;;9.32;;
21804;SDS011;11064;47.102;15.452;2023-05-21T19:24:52;14.17;;;9.60;;
21804;SDS011;11064;47.102;15.452;2023-05-21T19:27:18;13.63;;;9.73;;
21804;SDS011;11064;47.102;15.452;2023-05-21T19:29:45;12.88;;;9.40;;
21804;SDS011;11064;47.102;15.452;2023-05-21T19:32:11;11.85;;;8.95;;
21804;SDS011;11064;47.102;15.452;2023-05-21T19:34:37;14.43;;;10.05;;
21804;SDS011;11064;47.102;15.452;2023-05-21T19:37:03;13.30;;;9.25;;
21804;SDS011;11064;47.102;15.452;2023-05-21T19:39:39;11.73;;;9.68;;
21804;SDS011;11064;47.102;15.452;2023-05-21T19:42:06;13.25;;;9.73;;
21804;SDS011;11064;47.102;15.452;2023-05-21T19:44:33;16.15;;;9.20;;
21804;SDS011;11064;47.102;15.452;2023-05-21T19:47:08;12.63;;;9.40;;
21804;SDS011;11064;47.102;15.452;2023-05-21T19:49:34;13.05;;;9.38;;
21804;SDS011;11064;47.102;15.452;2023-05-21T19:52:00;12.15;;;9.13;;
21804;SDS011;11064;47.102;15.452;2023-05-21T19:54:26;13.45;;;9.68;;
21804;SDS011;11064;47.102;15.452;2023-05-21T19:56:52;13.68;;;9.23;;
21804;SDS011;11064;47.102;15.452;2023-05-21T19:59:18;12.35;;;9.65;;
21804;SDS011;11064;47.102;15.452;2023-05-21T20:01:44;13.25;;;9.25;;
21804;SDS011;11064;47.102;15.452;2023-05-21T20:04:10;12.50;;;9.13;;
21804;SDS011;11064;47.102;15.452;2023-05-21T20:06:36;12.32;;;9.38;;